16 de agosto de 2022

Hora Código Tiempo Temp. Visibilidad Cielo nuboso Viento METAR/SPECI
3:00 a. m.
V
57 °F 15 mi - Var 000° 0 kt METAR CYYC 160900Z 00000KT 15SM FEW230 14/10 A3007 RMK CI2 SLP176 DENSITY ALT 4200FT
2:32 a. m.
V
57 °F 15 mi - 330° 330° 2 kt METAR CYYC 160832Z 33002KT 15SM FEW220 14/10 A3007 RMK CI2 SLP180 DENSITY ALT 4200FT
1:00 a. m.
V
61 °F 15 mi - Var 000° 0 kt METAR CYYC 160700Z 00000KT 15SM SCT240 16/10 A3007 RMK CI3 SLP177 DENSITY ALT 4400FT
12:00 a. m.
V
61 °F 15 mi 24.000 ft 360° 360° 4 kt METAR CYYC 160600Z 36004KT 15SM FEW170 BKN240 16/10 A3007 RMK AC1CI6 AC TR SLP177 DENSITY ALT 4500FT

15 de agosto de 2022

Hora Código Tiempo Temp. Visibilidad Cielo nuboso Viento METAR/SPECI
11:00 p. m.
V
64 °F 15 mi 24.000 ft 350° 350° 3 kt METAR CYYC 160500Z 35003KT 15SM FEW170 BKN240 18/11 A3007 RMK AC1CI5 AC TR SLP177 DENSITY ALT 4700FT
10:00 p. m.
V
68 °F 15 mi - 340° 340° 5 kt METAR CYYC 160400Z 34005KT 15SM FEW150 SCT240 20/10 A3008 RMK AC2CI1 SLP180 DENSITY ALT 4800FT
9:00 p. m.
V
70 °F 20 mi 24.000 ft 020° 020° 4 kt METAR CYYC 160300Z 02004KT 20SM FEW150 BKN240 21/09 A3006 RMK AC2CI3 SLP176 DENSITY ALT 5000FT
8:00 p. m.
V
75 °F 20 mi 15.000 ft 030° 030° 9 kt METAR CYYC 160200Z 03009KT 20SM BKN150 BKN240 24/08 A3005 RMK AC5CI2 SLP174 DENSITY ALT 5300FT
7:00 p. m.
V
77 °F 15 mi 15.000 ft 030° 030° 9 kt METAR CYYC 160100Z 03009KT 15SM BKN150 25/08 A3005 RMK AC5 SLP171 DENSITY ALT 5500FT
6:00 p. m.
V
79 °F 10 mi - 020° 020° 6 kt METAR CYYC 160000Z 02006KT 10SM SCT180 26/08 A3004 RMK AC3 SLP168 DENSITY ALT 5600FT
5:00 p. m.
V
81 °F 15 mi - 020° 020° 5 kt METAR CYYC 152300Z 02005KT 15SM FEW170 SCT230 27/07 A3004 RMK AC1CC2 SLP166 DENSITY ALT 5600FT
4:00 p. m.
V
79 °F 15 mi 18.000 ft 020° 020° 4 kt METAR CYYC 152200Z 02004KT 350V120 15SM FEW075 BKN180 BKN230 26/07 A3005 RMK AC1AC5CC2 AC TR SLP170 DENSITY ALT 5600FT
3:00 p. m.
V
79 °F 15 mi 23.000 ft 040° 040° 8 kt METAR CYYC 152100Z 04008KT 340V050 15SM FEW072 BKN230 26/08 A3006 RMK CU1CC6 CU TR SLP172 DENSITY ALT 5500FT
2:00 p. m.
V
77 °F 15 mi 23.000 ft 010° 010° 9 kt METAR CYYC 152000Z 01009KT 15SM FEW065 BKN230 25/09 A3006 RMK CU1CC7 CU TR SLP174 DENSITY ALT 5400FT
1:00 p. m.
V
77 °F 15 mi 22.000 ft 360° 360° 8 kt METAR CYYC 151900Z 36008KT 330V030 15SM FEW060 BKN220 25/08 A3007 RMK CU1CC6 CU TR SLP175 DENSITY ALT 5400FT
12:00 p. m.
V
75 °F 10 mi - 330° 330° 8 kt METAR CYYC 151800Z 33008KT 290V030 10SM FEW170 SCT300 24/09 A3008 RMK AC2CI2 SLP179 DENSITY ALT 5300FT
11:00 a. m.
V
72 °F 15 mi - 010° 010° 7 kt METAR CYYC 151700Z 01007KT 340V040 15SM FEW170 SCT300 22/10 A3008 RMK AC1CI2 SLP175 DENSITY ALT 5100FT
10:00 a. m.
V
66 °F 10 mi - 360° 360° 7 kt METAR CYYC 151600Z 36007KT 320V020 10SM FEW170 SCT300 19/10 A3009 RMK AC1CI2 SLP179 DENSITY ALT 4800FT
9:00 a. m.
V
63 °F 15 mi 30.000 ft 340° 340° 7 kt METAR CYYC 151500Z 34007KT 15SM FEW170 BKN300 17/09 A3009 RMK AC1CI6 SLP183 DENSITY ALT 4500FT
8:00 a. m.
V
57 °F 15 mi 30.000 ft 320° 320° 5 kt METAR CYYC 151400Z 32005KT 15SM FEW170 BKN300 14/08 A3009 RMK AC1CI6 SLP183 DENSITY ALT 4100FT
7:00 a. m.
V
54 °F 20 mi 24.000 ft 340° 340° 5 kt METAR CYYC 151300Z 34005KT 20SM SCT170 BKN240 12/08 A3009 RMK AC3CI4 SLP183 DENSITY ALT 4000FT
6:00 a. m.
V
55 °F 15 mi 22.000 ft 330° 330° 6 kt METAR CYYC 151200Z 33006KT 15SM SCT170 BKN220 13/08 A3009 RMK AC2CI3 SLP181 DENSITY ALT 4000FT
5:00 a. m.
V
57 °F 15 mi 25.000 ft 330° 330° 5 kt METAR CYYC 151100Z 33005KT 15SM FEW045 BKN250 14/08 A3008 RMK SC1CI5 SLP178 DENSITY ALT 4200FT
4:00 a. m.
V
57 °F 15 mi 23.000 ft 320° 320° 6 kt METAR CYYC 151000Z 32006KT 15SM BKN230 14/09 A3008 RMK CI5 SLP178 DENSITY ALT 4200FT
3:00 a. m.
V
57 °F 15 mi 23.000 ft 350° 350° 6 kt METAR CYYC 150900Z 35006KT 15SM BKN230 14/09 A3008 RMK CI5 SLP177 DENSITY ALT 4200FT
2:00 a. m.
V
59 °F 15 mi 13.000 ft 340° 340° 7 kt METAR CYYC 150800Z 34007KT 15SM BKN130 15/09 A3008 RMK AC5 SLP178 DENSITY ALT 4300FT
1:00 a. m.
V
59 °F 15 mi 13.000 ft 360° 360° 7 kt METAR CYYC 150700Z 36007KT 15SM BKN130 15/10 A3007 RMK AC6 SLP175 DENSITY ALT 4300FT
12:00 a. m.
V
61 °F 10 mi - 360° 360° 12 kt METAR CYYC 150600Z 36012KT 10SM FEW120 16/11 A3006 RMK AC3 SLP174 DENSITY ALT 4500FT

14 de agosto de 2022

Hora Código Tiempo Temp. Visibilidad Cielo nuboso Viento METAR/SPECI
11:00 p. m.
V
72 °F 15 mi - 130° 130° 7 kt METAR CYYC 150500Z 13007KT 15SM FEW110 FEW220 22/05 A3003 RMK AC1CI1 AC TR SLP158 DENSITY ALT 5100FT
10:00 p. m.
V
73 °F 15 mi - 130° 130° 8 kt METAR CYYC 150400Z 13008KT 15SM FEW110 SCT220 23/06 A3002 RMK AC1CI2 SLP157 DENSITY ALT 5300FT
9:00 p. m.
V
75 °F 15 mi 22.000 ft 130° 130° 7 kt METAR CYYC 150300Z 13007KT 15SM FEW140 SCT180 BKN220 24/06 A3001 RMK AC2AC2CI1 DIST SH SW SLP154 DENSITY ALT 5400FT
8:00 p. m.
V
79 °F 10 mi - 140° 140° 8 - 15 kt METAR CYYC 150200Z 14008G15KT 10SM FEW130 SCT180 26/05 A3000 RMK AC2AC1 SLP150 DENSITY ALT 5600FT
7:00 p. m.
V
81 °F 10 mi - 130° 130° 9 - 17 kt METAR CYYC 150100Z 13009G17KT 10SM FEW080 FEW280 27/05 A3000 RMK AC1CI1 SLP151 DENSITY ALT 5800FT
6:00 p. m.
V
82 °F 15 mi - 140° 140° 8 - 16 kt METAR CYYC 150000Z 14008G16KT 15SM FEW080 FEW280 28/05 A3000 RMK AC1CI1 AC TR SLP151 DENSITY ALT 5800FT
5:00 p. m.
V
82 °F 15 mi - 150° 150° 11 - 18 kt METAR CYYC 142300Z 15011G18KT 090V160 15SM FEW075 FEW280 28/06 A3001 RMK AC1CI1 AC TR CI TR SLP155 DENSITY ALT 5800FT
4:00 p. m.
V
81 °F 15 mi - 160° 160° 7 kt METAR CYYC 142200Z 16007KT 090V180 15SM FEW075 SCT280 27/05 A3002 RMK AC1CI1 AC TR CI TR SLP159 DENSITY ALT 5800FT
3:00 p. m.
V
81 °F 15 mi - 170° 170° 5 kt METAR CYYC 142100Z 17005KT 060V190 15SM FEW075 FEW280 27/06 A3004 RMK CU1CC1 CU TR CC TR SLP165 DENSITY ALT 5700FT
2:00 p. m.
V
79 °F 15 mi - 150° 150° 7 kt METAR CYYC 142000Z 15007KT 120V220 15SM FEW075 FEW280 26/06 A3005 RMK CU1CC1 CU TR CC TR SLP169 DENSITY ALT 5600FT
1:00 p. m.
V
77 °F 15 mi - 150° 150° 10 kt METAR CYYC 141900Z 15010KT 120V190 15SM FEW075 FEW280 25/07 A3007 RMK CU1CC1 CU TR SLP175 DENSITY ALT 5400FT
12:00 p. m.
V
73 °F 15 mi - 140° 140° 10 kt METAR CYYC 141800Z 14010KT 080V160 15SM FEW280 23/06 A3009 RMK CC1 SLP179 DENSITY ALT 5200FT
11:00 a. m.
V
72 °F 15 mi - 130° 130° 6 kt METAR CYYC 141700Z 13006KT 110V190 15SM FEW280 22/07 A3009 RMK CC2 SLP183 DENSITY ALT 5000FT
10:00 a. m.
V
68 °F 15 mi - 180° 180° 3 kt METAR CYYC 141600Z 18003KT 15SM FEW280 20/08 A3010 RMK CC2 SLP185 DENSITY ALT 4800FT
9:00 a. m.
V
64 °F 15 mi - 230° 230° 3 kt METAR CYYC 141500Z 23003KT 190V260 15SM SCT280 18/08 A3010 RMK CC3 SLP186 DENSITY ALT 4600FT
8:00 a. m.
V
61 °F 15 mi 28.000 ft 290° 290° 4 kt METAR CYYC 141400Z 29004KT 15SM BKN280 16/08 A3008 RMK CC5 SLP177 DENSITY ALT 4400FT
7:00 a. m.
V
57 °F 20 mi 23.000 ft 250° 250° 3 kt METAR CYYC 141300Z 25003KT 20SM FEW160 BKN230 14/08 A3009 RMK AC2CI3 SLP179 DENSITY ALT 4200FT
6:00 a. m.
V
57 °F 15 mi 23.000 ft 260° 260° 2 kt METAR CYYC 141200Z 26002KT 15SM BKN230 14/08 A3009 RMK CI5 SLP178 DENSITY ALT 4100FT
5:00 a. m.
V
55 °F 15 mi - 340° 340° 8 kt METAR CYYC 141100Z 34008KT 15SM FEW230 13/08 A3007 RMK CI2 SLP172 DENSITY ALT 4100FT
4:00 a. m.
V
57 °F 15 mi - 360° 360° 13 kt METAR CYYC 141000Z 36013KT 15SM SKC 14/08 A3006 RMK SLP172 DENSITY ALT 4200FT
Datos más antiguos

Nosotros y terceros seguimos tu comportamiento en Internet en nuestro sitio web con cookies. Si continúas, asumimos que estás de acuerdo con nuestra política de cookies. Más información